sensor_id;sensor_type;location;lat;lon;timestamp;P1;durP1;ratioP1;P2;durP2;ratioP2
24635;SDS011;12772;49.794;10.024;2022-09-12T00:04:02;7.68;;;7.00;;
24635;SDS011;12772;49.794;10.024;2022-09-12T00:08:04;7.40;;;6.65;;
24635;SDS011;12772;49.794;10.024;2022-09-12T00:12:06;7.30;;;6.70;;
24635;SDS011;12772;49.794;10.024;2022-09-12T00:16:15;6.65;;;6.15;;
24635;SDS011;12772;49.794;10.024;2022-09-12T00:20:22;7.43;;;6.82;;
24635;SDS011;12772;49.794;10.024;2022-09-12T00:24:24;9.75;;;7.60;;
24635;SDS011;12772;49.794;10.024;2022-09-12T00:28:26;7.63;;;7.03;;
24635;SDS011;12772;49.794;10.024;2022-09-12T00:32:28;8.05;;;7.35;;
24635;SDS011;12772;49.794;10.024;2022-09-12T00:36:30;7.13;;;6.38;;
24635;SDS011;12772;49.794;10.024;2022-09-12T00:40:32;8.27;;;6.70;;
24635;SDS011;12772;49.794;10.024;2022-09-12T00:48:47;8.40;;;7.60;;
24635;SDS011;12772;49.794;10.024;2022-09-12T00:52:54;8.93;;;8.13;;
24635;SDS011;12772;49.794;10.024;2022-09-12T00:57:00;8.73;;;7.75;;
24635;SDS011;12772;49.794;10.024;2022-09-12T01:01:04;7.28;;;6.57;;
24635;SDS011;12772;49.794;10.024;2022-09-12T01:05:07;7.78;;;7.18;;
24635;SDS011;12772;49.794;10.024;2022-09-12T01:09:11;7.30;;;6.70;;
24635;SDS011;12772;49.794;10.024;2022-09-12T01:13:17;6.53;;;6.03;;
24635;SDS011;12772;49.794;10.024;2022-09-12T01:17:19;6.55;;;6.05;;
24635;SDS011;12772;49.794;10.024;2022-09-12T01:34:24;6.65;;;6.13;;
24635;SDS011;12772;49.794;10.024;2022-09-12T01:38:30;6.57;;;5.93;;
24635;SDS011;12772;49.794;10.024;2022-09-12T01:42:49;7.63;;;6.90;;
24635;SDS011;12772;49.794;10.024;2022-09-12T01:47:05;7.88;;;7.18;;
24635;SDS011;12772;49.794;10.024;2022-09-12T01:51:16;7.47;;;6.78;;
24635;SDS011;12772;49.794;10.024;2022-09-12T01:59:51;6.65;;;6.05;;
24635;SDS011;12772;49.794;10.024;2022-09-12T02:04:11;6.78;;;6.15;;
24635;SDS011;12772;49.794;10.024;2022-09-12T02:08:21;7.10;;;6.50;;
24635;SDS011;12772;49.794;10.024;2022-09-12T02:12:30;6.80;;;6.05;;
24635;SDS011;12772;49.794;10.024;2022-09-12T02:16:59;7.22;;;6.63;;
24635;SDS011;12772;49.794;10.024;2022-09-12T02:21:08;7.30;;;6.70;;
24635;SDS011;12772;49.794;10.024;2022-09-12T02:25:10;7.80;;;7.20;;
24635;SDS011;12772;49.794;10.024;2022-09-12T02:29:16;7.47;;;6.88;;
24635;SDS011;12772;49.794;10.024;2022-09-12T02:33:19;8.65;;;7.13;;
24635;SDS011;12772;49.794;10.024;2022-09-12T02:37:47;7.68;;;6.88;;
24635;SDS011;12772;49.794;10.024;2022-09-12T02:41:58;6.85;;;6.30;;
24635;SDS011;12772;49.794;10.024;2022-09-12T02:46:01;8.77;;;7.85;;
24635;SDS011;12772;49.794;10.024;2022-09-12T02:50:03;8.73;;;7.93;;
24635;SDS011;12772;49.794;10.024;2022-09-12T02:54:07;7.45;;;6.75;;
24635;SDS011;12772;49.794;10.024;2022-09-12T02:58:12;8.27;;;7.40;;
24635;SDS011;12772;49.794;10.024;2022-09-12T03:07:15;8.45;;;7.65;;
24635;SDS011;12772;49.794;10.024;2022-09-12T03:16:04;11.93;;;8.75;;
24635;SDS011;12772;49.794;10.024;2022-09-12T03:20:21;9.18;;;8.13;;
24635;SDS011;12772;49.794;10.024;2022-09-12T03:25:04;54.88;;;10.25;;
24635;SDS011;12772;49.794;10.024;2022-09-12T03:29:13;32.92;;;9.07;;
24635;SDS011;12772;49.794;10.024;2022-09-12T03:33:17;8.15;;;6.78;;
24635;SDS011;12772;49.794;10.024;2022-09-12T03:37:21;8.50;;;7.80;;
24635;SDS011;12772;49.794;10.024;2022-09-12T03:41:23;8.60;;;7.80;;
24635;SDS011;12772;49.794;10.024;2022-09-12T03:45:25;9.25;;;7.95;;
24635;SDS011;12772;49.794;10.024;2022-09-12T03:49:27;7.63;;;7.03;;
24635;SDS011;12772;49.794;10.024;2022-09-12T03:53:29;6.88;;;6.30;;
24635;SDS011;12772;49.794;10.024;2022-09-12T03:57:31;5.85;;;5.35;;
24635;SDS011;12772;49.794;10.024;2022-09-12T04:01:33;30.00;;;7.85;;
24635;SDS011;12772;49.794;10.024;2022-09-12T04:05:37;5.88;;;5.47;;
24635;SDS011;12772;49.794;10.024;2022-09-12T04:09:39;6.35;;;5.85;;
24635;SDS011;12772;49.794;10.024;2022-09-12T04:13:42;6.53;;;5.95;;
24635;SDS011;12772;49.794;10.024;2022-09-12T04:17:45;6.93;;;6.43;;
24635;SDS011;12772;49.794;10.024;2022-09-12T04:21:47;6.78;;;6.28;;
24635;SDS011;12772;49.794;10.024;2022-09-12T04:25:56;7.03;;;6.35;;
24635;SDS011;12772;49.794;10.024;2022-09-12T04:29:59;6.45;;;5.95;;
24635;SDS011;12772;49.794;10.024;2022-09-12T04:34:01;7.75;;;7.00;;
24635;SDS011;12772;49.794;10.024;2022-09-12T04:38:04;7.80;;;7.10;;
24635;SDS011;12772;49.794;10.024;2022-09-12T04:42:06;25.98;;;7.35;;
24635;SDS011;12772;49.794;10.024;2022-09-12T04:46:09;5.90;;;5.40;;
24635;SDS011;12772;49.794;10.024;2022-09-12T04:50:12;6.88;;;6.28;;
24635;SDS011;12772;49.794;10.024;2022-09-12T04:54:15;6.47;;;5.88;;
24635;SDS011;12772;49.794;10.024;2022-09-12T04:58:18;17.58;;;6.45;;
24635;SDS011;12772;49.794;10.024;2022-09-12T05:02:20;10.88;;;6.32;;
24635;SDS011;12772;49.794;10.024;2022-09-12T05:06:23;46.17;;;8.68;;
24635;SDS011;12772;49.794;10.024;2022-09-12T05:10:27;5.88;;;5.25;;
24635;SDS011;12772;49.794;10.024;2022-09-12T05:14:30;15.13;;;6.10;;
24635;SDS011;12772;49.794;10.024;2022-09-12T05:18:33;6.50;;;5.30;;
24635;SDS011;12772;49.794;10.024;2022-09-12T05:22:36;5.85;;;5.32;;
24635;SDS011;12772;49.794;10.024;2022-09-12T05:26:38;88.30;;;9.73;;
24635;SDS011;12772;49.794;10.024;2022-09-12T05:30:40;27.25;;;5.68;;
24635;SDS011;12772;49.794;10.024;2022-09-12T05:34:42;5.28;;;4.75;;
24635;SDS011;12772;49.794;10.024;2022-09-12T05:38:45;54.05;;;8.73;;
24635;SDS011;12772;49.794;10.024;2022-09-12T05:42:47;8.07;;;6.75;;
24635;SDS011;12772;49.794;10.024;2022-09-12T05:46:49;55.70;;;9.05;;
24635;SDS011;12772;49.794;10.024;2022-09-12T05:51:02;158.05;;;16.00;;
24635;SDS011;12772;49.794;10.024;2022-09-12T05:55:07;8.05;;;6.97;;
24635;SDS011;12772;49.794;10.024;2022-09-12T05:59:19;16.77;;;8.40;;
24635;SDS011;12772;49.794;10.024;2022-09-12T06:03:23;29.30;;;6.95;;
24635;SDS011;12772;49.794;10.024;2022-09-12T06:07:25;24.73;;;7.85;;
24635;SDS011;12772;49.794;10.024;2022-09-12T06:11:28;21.52;;;9.13;;
24635;SDS011;12772;49.794;10.024;2022-09-12T06:15:32;83.50;;;12.95;;
24635;SDS011;12772;49.794;10.024;2022-09-12T06:19:34;11.90;;;7.93;;
24635;SDS011;12772;49.794;10.024;2022-09-12T06:23:37;18.52;;;9.07;;
24635;SDS011;12772;49.794;10.024;2022-09-12T06:27:41;13.70;;;7.55;;
24635;SDS011;12772;49.794;10.024;2022-09-12T06:31:43;8.93;;;8.00;;
24635;SDS011;12772;49.794;10.024;2022-09-12T06:35:45;27.90;;;8.10;;
24635;SDS011;12772;49.794;10.024;2022-09-12T06:39:47;6.82;;;6.20;;
24635;SDS011;12772;49.794;10.024;2022-09-12T06:43:50;45.25;;;9.27;;
24635;SDS011;12772;49.794;10.024;2022-09-12T06:47:53;32.05;;;7.72;;
24635;SDS011;12772;49.794;10.024;2022-09-12T06:51:55;12.43;;;6.85;;
24635;SDS011;12772;49.794;10.024;2022-09-12T06:56:01;6.20;;;5.70;;
24635;SDS011;12772;49.794;10.024;2022-09-12T07:00:07;24.75;;;8.45;;
24635;SDS011;12772;49.794;10.024;2022-09-12T07:04:10;17.08;;;6.95;;
24635;SDS011;12772;49.794;10.024;2022-09-12T07:08:12;8.40;;;5.97;;
24635;SDS011;12772;49.794;10.024;2022-09-12T07:12:14;9.48;;;6.38;;
24635;SDS011;12772;49.794;10.024;2022-09-12T07:16:17;16.63;;;8.40;;
24635;SDS011;12772;49.794;10.024;2022-09-12T07:20:19;10.30;;;7.72;;
24635;SDS011;12772;49.794;10.024;2022-09-12T07:24:22;10.52;;;7.95;;
24635;SDS011;12772;49.794;10.024;2022-09-12T07:28:25;8.50;;;7.30;;
24635;SDS011;12772;49.794;10.024;2022-09-12T07:32:28;7.40;;;6.70;;
24635;SDS011;12772;49.794;10.024;2022-09-12T07:36:30;8.00;;;7.20;;
24635;SDS011;12772;49.794;10.024;2022-09-12T07:40:32;7.10;;;6.43;;
24635;SDS011;12772;49.794;10.024;2022-09-12T07:44:34;8.73;;;7.82;;
24635;SDS011;12772;49.794;10.024;2022-09-12T07:48:36;8.07;;;7.18;;
24635;SDS011;12772;49.794;10.024;2022-09-12T07:52:39;11.80;;;8.93;;
24635;SDS011;12772;49.794;10.024;2022-09-12T07:56:41;8.65;;;7.70;;
24635;SDS011;12772;49.794;10.024;2022-09-12T08:00:43;16.10;;;8.23;;
24635;SDS011;12772;49.794;10.024;2022-09-12T08:04:46;13.43;;;8.98;;
24635;SDS011;12772;49.794;10.024;2022-09-12T08:08:48;14.25;;;8.68;;
24635;SDS011;12772;49.794;10.024;2022-09-12T08:12:51;8.05;;;7.35;;
24635;SDS011;12772;49.794;10.024;2022-09-12T08:16:53;7.55;;;6.82;;
24635;SDS011;12772;49.794;10.024;2022-09-12T08:20:58;7.60;;;6.90;;
24635;SDS011;12772;49.794;10.024;2022-09-12T08:25:02;11.63;;;9.18;;
24635;SDS011;12772;49.794;10.024;2022-09-12T08:29:04;11.27;;;9.18;;
24635;SDS011;12772;49.794;10.024;2022-09-12T08:33:06;9.88;;;8.88;;
24635;SDS011;12772;49.794;10.024;2022-09-12T08:37:08;11.20;;;10.00;;
24635;SDS011;12772;49.794;10.024;2022-09-12T08:45:21;13.73;;;10.80;;
24635;SDS011;12772;49.794;10.024;2022-09-12T08:49:34;13.45;;;11.23;;
24635;SDS011;12772;49.794;10.024;2022-09-12T08:54:00;13.35;;;11.73;;
24635;SDS011;12772;49.794;10.024;2022-09-12T08:58:09;12.73;;;11.45;;
24635;SDS011;12772;49.794;10.024;2022-09-12T09:24:32;11.13;;;9.88;;
24635;SDS011;12772;49.794;10.024;2022-09-12T09:28:48;13.10;;;11.80;;
24635;SDS011;12772;49.794;10.024;2022-09-12T09:32:54;16.42;;;13.90;;
24635;SDS011;12772;49.794;10.024;2022-09-12T09:45:35;13.60;;;12.40;;
24635;SDS011;12772;49.794;10.024;2022-09-12T09:49:38;13.55;;;12.18;;
24635;SDS011;12772;49.794;10.024;2022-09-12T09:53:47;13.77;;;12.38;;
24635;SDS011;12772;49.794;10.024;2022-09-12T09:57:53;10.95;;;9.95;;
24635;SDS011;12772;49.794;10.024;2022-09-12T10:06:04;12.65;;;11.32;;
24635;SDS011;12772;49.794;10.024;2022-09-12T10:10:15;12.43;;;11.32;;
24635;SDS011;12772;49.794;10.024;2022-09-12T10:14:38;13.23;;;12.02;;
24635;SDS011;12772;49.794;10.024;2022-09-12T10:18:41;12.18;;;11.07;;
24635;SDS011;12772;49.794;10.024;2022-09-12T10:22:45;11.57;;;10.48;;
24635;SDS011;12772;49.794;10.024;2022-09-12T10:26:50;10.00;;;9.00;;
24635;SDS011;12772;49.794;10.024;2022-09-12T10:30:55;10.65;;;9.65;;
24635;SDS011;12772;49.794;10.024;2022-09-12T10:35:00;9.35;;;8.52;;
24635;SDS011;12772;49.794;10.024;2022-09-12T10:39:05;10.10;;;9.30;;
24635;SDS011;12772;49.794;10.024;2022-09-12T10:43:25;8.85;;;8.00;;
24635;SDS011;12772;49.794;10.024;2022-09-12T10:47:27;9.20;;;8.40;;
24635;SDS011;12772;49.794;10.024;2022-09-12T10:51:32;9.05;;;8.25;;
24635;SDS011;12772;49.794;10.024;2022-09-12T10:55:34;9.68;;;8.88;;
24635;SDS011;12772;49.794;10.024;2022-09-12T11:04:19;11.15;;;10.23;;
24635;SDS011;12772;49.794;10.024;2022-09-12T11:12:52;9.50;;;8.70;;
24635;SDS011;12772;49.794;10.024;2022-09-12T11:25:45;9.38;;;8.57;;
24635;SDS011;12772;49.794;10.024;2022-09-12T11:30:10;9.50;;;8.60;;
24635;SDS011;12772;49.794;10.024;2022-09-12T11:34:16;8.45;;;7.72;;
24635;SDS011;12772;49.794;10.024;2022-09-12T11:38:47;8.93;;;8.23;;
24635;SDS011;12772;49.794;10.024;2022-09-12T11:42:54;7.55;;;6.85;;
24635;SDS011;12772;49.794;10.024;2022-09-12T11:47:18;7.28;;;6.68;;
24635;SDS011;12772;49.794;10.024;2022-09-12T11:51:25;7.85;;;7.15;;
24635;SDS011;12772;49.794;10.024;2022-09-12T11:55:31;9.15;;;8.38;;
24635;SDS011;12772;49.794;10.024;2022-09-12T11:59:58;7.82;;;7.20;;
24635;SDS011;12772;49.794;10.024;2022-09-12T12:04:11;7.40;;;6.70;;
24635;SDS011;12772;49.794;10.024;2022-09-12T12:08:15;6.30;;;5.80;;
24635;SDS011;12772;49.794;10.024;2022-09-12T12:12:20;8.35;;;7.65;;
24635;SDS011;12772;49.794;10.024;2022-09-12T12:16:26;6.55;;;5.95;;
24635;SDS011;12772;49.794;10.024;2022-09-12T12:20:30;5.70;;;5.22;;
24635;SDS011;12772;49.794;10.024;2022-09-12T12:24:32;5.78;;;5.38;;
24635;SDS011;12772;49.794;10.024;2022-09-12T12:32:42;5.57;;;5.15;;
24635;SDS011;12772;49.794;10.024;2022-09-12T12:36:44;6.03;;;5.53;;
24635;SDS011;12772;49.794;10.024;2022-09-12T12:40:49;5.43;;;4.97;;
24635;SDS011;12772;49.794;10.024;2022-09-12T12:44:51;5.70;;;5.30;;
24635;SDS011;12772;49.794;10.024;2022-09-12T12:53:15;4.80;;;4.43;;
24635;SDS011;12772;49.794;10.024;2022-09-12T12:57:22;4.43;;;4.13;;
24635;SDS011;12772;49.794;10.024;2022-09-12T13:01:29;4.60;;;4.20;;
24635;SDS011;12772;49.794;10.024;2022-09-12T13:09:47;4.22;;;3.92;;
24635;SDS011;12772;49.794;10.024;2022-09-12T13:13:56;4.47;;;3.70;;
24635;SDS011;12772;49.794;10.024;2022-09-12T13:18:01;4.25;;;3.95;;
24635;SDS011;12772;49.794;10.024;2022-09-12T13:22:15;4.20;;;3.90;;
24635;SDS011;12772;49.794;10.024;2022-09-12T13:26:23;5.22;;;4.30;;
24635;SDS011;12772;49.794;10.024;2022-09-12T13:30:26;4.95;;;4.63;;
24635;SDS011;12772;49.794;10.024;2022-09-12T13:34:34;4.28;;;3.97;;
24635;SDS011;12772;49.794;10.024;2022-09-12T13:43:10;4.10;;;3.70;;
24635;SDS011;12772;49.794;10.024;2022-09-12T13:47:16;4.15;;;3.85;;
24635;SDS011;12772;49.794;10.024;2022-09-12T13:51:26;3.70;;;3.40;;
24635;SDS011;12772;49.794;10.024;2022-09-12T13:55:32;4.53;;;4.13;;
24635;SDS011;12772;49.794;10.024;2022-09-12T13:59:40;4.18;;;3.88;;
24635;SDS011;12772;49.794;10.024;2022-09-12T14:08:04;4.53;;;3.85;;
24635;SDS011;12772;49.794;10.024;2022-09-12T14:12:30;5.20;;;3.60;;
24635;SDS011;12772;49.794;10.024;2022-09-12T14:16:37;4.50;;;4.20;;
24635;SDS011;12772;49.794;10.024;2022-09-12T14:20:40;4.47;;;4.18;;
24635;SDS011;12772;49.794;10.024;2022-09-12T14:24:47;5.30;;;4.85;;
24635;SDS011;12772;49.794;10.024;2022-09-12T14:28:51;4.22;;;3.92;;
24635;SDS011;12772;49.794;10.024;2022-09-12T14:37:10;4.55;;;4.22;;
24635;SDS011;12772;49.794;10.024;2022-09-12T14:41:13;4.57;;;4.10;;
24635;SDS011;12772;49.794;10.024;2022-09-12T14:45:30;4.50;;;4.20;;
24635;SDS011;12772;49.794;10.024;2022-09-12T14:49:33;7.43;;;5.82;;
24635;SDS011;12772;49.794;10.024;2022-09-12T14:53:36;6.82;;;4.50;;
24635;SDS011;12772;49.794;10.024;2022-09-12T14:57:47;4.60;;;4.30;;
24635;SDS011;12772;49.794;10.024;2022-09-12T15:02:26;4.15;;;3.75;;
24635;SDS011;12772;49.794;10.024;2022-09-12T15:06:38;4.40;;;4.10;;
24635;SDS011;12772;49.794;10.024;2022-09-12T15:10:40;5.30;;;3.80;;
24635;SDS011;12772;49.794;10.024;2022-09-12T15:14:42;4.68;;;4.00;;
24635;SDS011;12772;49.794;10.024;2022-09-12T15:18:45;5.15;;;4.03;;
24635;SDS011;12772;49.794;10.024;2022-09-12T15:22:47;4.35;;;4.05;;
24635;SDS011;12772;49.794;10.024;2022-09-12T15:26:49;4.40;;;4.10;;
24635;SDS011;12772;49.794;10.024;2022-09-12T15:30:53;4.38;;;4.07;;
24635;SDS011;12772;49.794;10.024;2022-09-12T15:34:56;4.25;;;3.85;;
24635;SDS011;12772;49.794;10.024;2022-09-12T15:38:58;4.95;;;4.45;;
24635;SDS011;12772;49.794;10.024;2022-09-12T15:43:00;4.32;;;4.10;;
24635;SDS011;12772;49.794;10.024;2022-09-12T15:47:03;5.78;;;4.00;;
24635;SDS011;12772;49.794;10.024;2022-09-12T15:51:09;4.70;;;4.30;;
24635;SDS011;12772;49.794;10.024;2022-09-12T15:55:17;4.40;;;4.10;;
24635;SDS011;12772;49.794;10.024;2022-09-12T15:59:21;5.18;;;4.28;;
24635;SDS011;12772;49.794;10.024;2022-09-12T16:03:24;4.75;;;4.35;;
24635;SDS011;12772;49.794;10.024;2022-09-12T16:07:28;3.97;;;3.67;;
24635;SDS011;12772;49.794;10.024;2022-09-12T16:11:30;4.13;;;3.80;;
24635;SDS011;12772;49.794;10.024;2022-09-12T16:15:32;4.20;;;3.90;;
24635;SDS011;12772;49.794;10.024;2022-09-12T16:19:34;4.53;;;4.10;;
24635;SDS011;12772;49.794;10.024;2022-09-12T16:23:36;4.30;;;4.00;;
24635;SDS011;12772;49.794;10.024;2022-09-12T16:27:39;4.50;;;4.20;;
24635;SDS011;12772;49.794;10.024;2022-09-12T16:31:41;4.90;;;4.60;;
24635;SDS011;12772;49.794;10.024;2022-09-12T16:35:43;4.72;;;4.32;;
24635;SDS011;12772;49.794;10.024;2022-09-12T16:39:45;4.53;;;4.13;;
24635;SDS011;12772;49.794;10.024;2022-09-12T16:43:48;5.00;;;4.60;;
24635;SDS011;12772;49.794;10.024;2022-09-12T16:47:50;4.75;;;4.35;;
24635;SDS011;12772;49.794;10.024;2022-09-12T16:51:52;4.72;;;4.22;;
24635;SDS011;12772;49.794;10.024;2022-09-12T16:55:54;4.78;;;4.47;;
24635;SDS011;12772;49.794;10.024;2022-09-12T16:59:56;7.07;;;5.00;;
24635;SDS011;12772;49.794;10.024;2022-09-12T17:03:58;5.00;;;4.57;;
24635;SDS011;12772;49.794;10.024;2022-09-12T17:08:00;4.90;;;4.60;;
24635;SDS011;12772;49.794;10.024;2022-09-12T17:12:02;4.43;;;3.97;;
24635;SDS011;12772;49.794;10.024;2022-09-12T17:16:05;5.70;;;4.38;;
24635;SDS011;12772;49.794;10.024;2022-09-12T17:20:09;4.32;;;4.00;;
24635;SDS011;12772;49.794;10.024;2022-09-12T17:24:11;5.63;;;5.00;;
24635;SDS011;12772;49.794;10.024;2022-09-12T17:28:13;4.30;;;3.90;;
24635;SDS011;12772;49.794;10.024;2022-09-12T17:32:15;4.45;;;4.05;;
24635;SDS011;12772;49.794;10.024;2022-09-12T17:36:17;4.25;;;3.95;;
24635;SDS011;12772;49.794;10.024;2022-09-12T17:40:21;4.70;;;4.30;;
24635;SDS011;12772;49.794;10.024;2022-09-12T17:44:23;5.15;;;4.65;;
24635;SDS011;12772;49.794;10.024;2022-09-12T17:48:25;4.80;;;4.35;;
24635;SDS011;12772;49.794;10.024;2022-09-12T17:52:27;5.05;;;4.53;;
24635;SDS011;12772;49.794;10.024;2022-09-12T17:56:30;4.75;;;4.35;;
24635;SDS011;12772;49.794;10.024;2022-09-12T18:00:34;6.07;;;4.97;;
24635;SDS011;12772;49.794;10.024;2022-09-12T18:04:54;5.38;;;4.93;;
24635;SDS011;12772;49.794;10.024;2022-09-12T18:08:58;6.32;;;5.72;;
24635;SDS011;12772;49.794;10.024;2022-09-12T18:13:04;5.43;;;5.00;;
24635;SDS011;12772;49.794;10.024;2022-09-12T18:17:07;5.07;;;4.70;;
24635;SDS011;12772;49.794;10.024;2022-09-12T18:21:11;4.85;;;4.45;;
24635;SDS011;12772;49.794;10.024;2022-09-12T18:25:13;4.80;;;4.40;;
24635;SDS011;12772;49.794;10.024;2022-09-12T18:29:15;5.30;;;4.80;;
24635;SDS011;12772;49.794;10.024;2022-09-12T18:33:19;5.00;;;4.60;;
24635;SDS011;12772;49.794;10.024;2022-09-12T18:37:21;5.78;;;4.90;;
24635;SDS011;12772;49.794;10.024;2022-09-12T18:41:23;5.47;;;4.93;;
24635;SDS011;12772;49.794;10.024;2022-09-12T18:45:26;5.72;;;5.20;;
24635;SDS011;12772;49.794;10.024;2022-09-12T18:49:28;6.05;;;5.45;;
24635;SDS011;12772;49.794;10.024;2022-09-12T18:53:31;5.32;;;4.82;;
24635;SDS011;12772;49.794;10.024;2022-09-12T18:57:34;5.13;;;4.72;;
24635;SDS011;12772;49.794;10.024;2022-09-12T19:01:37;5.35;;;4.75;;
24635;SDS011;12772;49.794;10.024;2022-09-12T19:05:39;4.93;;;4.57;;
24635;SDS011;12772;49.794;10.024;2022-09-12T19:09:42;5.45;;;5.05;;
24635;SDS011;12772;49.794;10.024;2022-09-12T19:13:44;5.85;;;5.22;;
24635;SDS011;12772;49.794;10.024;2022-09-12T19:17:48;7.95;;;5.72;;
24635;SDS011;12772;49.794;10.024;2022-09-12T19:21:50;5.90;;;5.40;;
24635;SDS011;12772;49.794;10.024;2022-09-12T19:25:56;5.63;;;5.13;;
24635;SDS011;12772;49.794;10.024;2022-09-12T19:29:59;5.28;;;4.80;;
24635;SDS011;12772;49.794;10.024;2022-09-12T19:34:02;5.28;;;4.80;;
24635;SDS011;12772;49.794;10.024;2022-09-12T19:38:05;4.55;;;4.20;;
24635;SDS011;12772;49.794;10.024;2022-09-12T19:42:07;6.68;;;5.50;;
24635;SDS011;12772;49.794;10.024;2022-09-12T19:46:16;5.13;;;4.63;;
24635;SDS011;12772;49.794;10.024;2022-09-12T19:50:19;5.97;;;5.45;;
24635;SDS011;12772;49.794;10.024;2022-09-12T19:54:21;5.35;;;4.95;;
24635;SDS011;12772;49.794;10.024;2022-09-12T19:58:23;5.53;;;5.13;;
24635;SDS011;12772;49.794;10.024;2022-09-12T20:02:25;5.93;;;5.43;;
24635;SDS011;12772;49.794;10.024;2022-09-12T20:06:28;5.68;;;5.20;;
24635;SDS011;12772;49.794;10.024;2022-09-12T20:10:30;5.65;;;5.15;;
24635;SDS011;12772;49.794;10.024;2022-09-12T20:14:32;5.63;;;5.13;;
24635;SDS011;12772;49.794;10.024;2022-09-12T20:18:34;6.57;;;5.25;;
24635;SDS011;12772;49.794;10.024;2022-09-12T20:22:37;5.10;;;4.80;;
24635;SDS011;12772;49.794;10.024;2022-09-12T20:26:39;5.25;;;4.85;;
24635;SDS011;12772;49.794;10.024;2022-09-12T20:30:41;5.90;;;5.40;;
24635;SDS011;12772;49.794;10.024;2022-09-12T20:34:43;5.10;;;4.50;;
24635;SDS011;12772;49.794;10.024;2022-09-12T20:38:46;6.20;;;5.72;;
24635;SDS011;12772;49.794;10.024;2022-09-12T20:42:56;5.22;;;4.78;;
24635;SDS011;12772;49.794;10.024;2022-09-12T20:46:58;6.20;;;5.70;;
24635;SDS011;12772;49.794;10.024;2022-09-12T20:51:00;5.95;;;5.28;;
24635;SDS011;12772;49.794;10.024;2022-09-12T20:55:02;6.32;;;5.72;;
24635;SDS011;12772;49.794;10.024;2022-09-12T20:59:04;6.47;;;5.88;;
24635;SDS011;12772;49.794;10.024;2022-09-12T21:03:07;6.57;;;6.03;;
24635;SDS011;12772;49.794;10.024;2022-09-12T21:07:09;6.05;;;5.55;;
24635;SDS011;12772;49.794;10.024;2022-09-12T21:11:11;6.32;;;5.55;;
24635;SDS011;12772;49.794;10.024;2022-09-12T21:15:13;6.50;;;6.00;;
24635;SDS011;12772;49.794;10.024;2022-09-12T21:19:15;6.18;;;5.53;;
24635;SDS011;12772;49.794;10.024;2022-09-12T21:23:18;5.60;;;5.10;;
24635;SDS011;12772;49.794;10.024;2022-09-12T21:27:20;6.20;;;5.70;;
24635;SDS011;12772;49.794;10.024;2022-09-12T21:31:22;6.20;;;5.70;;
24635;SDS011;12772;49.794;10.024;2022-09-12T21:35:24;6.70;;;6.07;;
24635;SDS011;12772;49.794;10.024;2022-09-12T21:39:26;8.52;;;6.22;;
24635;SDS011;12772;49.794;10.024;2022-09-12T21:43:28;6.50;;;5.90;;
24635;SDS011;12772;49.794;10.024;2022-09-12T21:47:30;7.88;;;5.57;;
24635;SDS011;12772;49.794;10.024;2022-09-12T21:51:32;6.90;;;6.28;;
24635;SDS011;12772;49.794;10.024;2022-09-12T21:55:34;6.45;;;5.85;;
24635;SDS011;12772;49.794;10.024;2022-09-12T21:59:36;7.32;;;6.68;;
24635;SDS011;12772;49.794;10.024;2022-09-12T22:03:38;6.22;;;5.70;;
24635;SDS011;12772;49.794;10.024;2022-09-12T22:07:42;7.15;;;6.07;;
24635;SDS011;12772;49.794;10.024;2022-09-12T22:11:44;7.32;;;6.72;;
24635;SDS011;12772;49.794;10.024;2022-09-12T22:15:49;6.82;;;6.32;;
24635;SDS011;12772;49.794;10.024;2022-09-12T22:19:52;7.35;;;6.72;;
24635;SDS011;12772;49.794;10.024;2022-09-12T22:23:54;7.10;;;6.40;;
24635;SDS011;12772;49.794;10.024;2022-09-12T22:28:14;7.82;;;7.05;;
24635;SDS011;12772;49.794;10.024;2022-09-12T22:32:16;6.85;;;6.25;;
24635;SDS011;12772;49.794;10.024;2022-09-12T22:36:19;6.50;;;5.70;;
24635;SDS011;12772;49.794;10.024;2022-09-12T22:40:21;6.72;;;6.22;;
24635;SDS011;12772;49.794;10.024;2022-09-12T22:44:23;6.63;;;5.95;;
24635;SDS011;12772;49.794;10.024;2022-09-12T22:48:25;7.70;;;7.00;;
24635;SDS011;12772;49.794;10.024;2022-09-12T22:52:27;7.05;;;6.45;;
24635;SDS011;12772;49.794;10.024;2022-09-12T22:56:30;7.82;;;7.10;;
24635;SDS011;12772;49.794;10.024;2022-09-12T23:00:32;6.78;;;6.20;;
24635;SDS011;12772;49.794;10.024;2022-09-12T23:04:34;7.38;;;6.10;;
24635;SDS011;12772;49.794;10.024;2022-09-12T23:08:37;7.07;;;6.47;;
24635;SDS011;12772;49.794;10.024;2022-09-12T23:12:39;9.15;;;6.78;;
24635;SDS011;12772;49.794;10.024;2022-09-12T23:16:41;7.00;;;6.40;;
24635;SDS011;12772;49.794;10.024;2022-09-12T23:20:43;7.55;;;6.85;;
24635;SDS011;12772;49.794;10.024;2022-09-12T23:24:56;7.15;;;6.55;;
24635;SDS011;12772;49.794;10.024;2022-09-12T23:28:59;7.10;;;6.50;;
24635;SDS011;12772;49.794;10.024;2022-09-12T23:33:02;8.15;;;7.40;;
24635;SDS011;12772;49.794;10.024;2022-09-12T23:37:04;8.73;;;7.13;;
24635;SDS011;12772;49.794;10.024;2022-09-12T23:41:07;7.68;;;6.97;;
24635;SDS011;12772;49.794;10.024;2022-09-12T23:45:09;7.07;;;6.30;;
24635;SDS011;12772;49.794;10.024;2022-09-12T23:49:11;7.57;;;6.63;;
24635;SDS011;12772;49.794;10.024;2022-09-12T23:53:14;8.25;;;6.47;;
24635;SDS011;12772;49.794;10.024;2022-09-12T23:57:17;6.55;;;5.95;;
